Time;durP1;ratioP1;P1;durP2;ratioP2;P2;SDS_P1;SDS_P2;PMS_P1;PMS_P2;Temp;Humidity;BMP_temperature;BMP_pressure;BME280_temperature;BME280_humidity;BME280_pressure;Samples;Min_cycle;Max_cycle;Signal;HPM_P1;HPM_P2
2022/12/23 00:01:53;;;;;;;0.83;0.83;;;9.10;99.90;8.40;94932.00;;;;5075441;28;20609;-58
2022/12/23 00:04:21;;;;;;;0.57;0.57;;;;;8.50;94941.00;;;;5077039;28;20215;-58
2022/12/23 00:06:48;;;;;;;0.60;0.60;;;9.20;99.90;8.50;94941.00;;;;5077035;28;20240;-57
2022/12/23 00:09:16;;;;;;;0.50;0.50;;;;;8.50;94945.00;;;;5077302;28;20623;-58
2022/12/23 00:15:04;;;;;;;0.93;0.93;;;;;8.50;94948.00;;;;5076883;28;20598;-58
2022/12/23 00:17:22;;;;;;;0.70;0.70;;;9.20;99.90;8.60;94938.00;;;;5076964;28;20195;-57
2022/12/23 00:19:51;;;;;;;0.77;0.77;;;;;8.60;94934.00;;;;5076616;28;20196;-56
2022/12/23 00:22:18;;;;;;;0.67;0.67;;;9.40;99.90;8.70;94928.00;;;;5077317;28;20219;-56
2022/12/23 00:24:46;;;;;;;0.70;0.70;;;;;8.70;94931.00;;;;5077097;28;20678;-58
2022/12/23 00:27:13;;;;;;;0.50;0.50;;;;;8.80;94927.00;;;;5076822;28;20241;-56
2022/12/23 00:29:40;;;;;;;0.53;0.53;;;9.50;99.90;8.70;94926.00;;;;5077129;28;20195;-56
2022/12/23 00:32:07;;;;;;;0.60;0.60;;;;;8.80;94924.00;;;;5076629;28;20207;-56
2022/12/23 00:34:35;;;;;;;0.50;0.50;;;;;8.80;94927.00;;;;5076796;28;20195;-56
2022/12/23 00:37:03;;;;;;;0.60;0.60;;;;;8.80;94935.00;;;;5076442;28;20253;-56
2022/12/23 00:45:14;;;;;;;0.60;0.60;;;;;9.10;94929.00;;;;5076196;28;20214;-56
2022/12/23 00:50:29;;;;;;;0.50;0.50;;;;;9.10;94948.00;;;;5076489;28;20199;-56
2022/12/23 00:52:58;;;;;;;0.47;0.47;;;;;9.10;94947.00;;;;5076490;28;20264;-56
2022/12/23 00:55:25;;;;;;;1.33;1.23;;;;;9.20;94955.00;;;;5076034;28;20655;-56
2022/12/23 00:57:53;;;;;;;0.50;0.50;;;;;9.10;94955.00;;;;5076348;28;20199;-56
2022/12/23 01:05:35;;;;;;;1.10;1.10;;;;;9.20;94958.00;;;;5076524;28;20198;-56
2022/12/23 01:05:58;;;;;;;0.50;0.50;;;;;9.30;94963.00;;;;5075875;28;20202;-56
2022/12/23 01:08:31;;;;;;;0.47;0.47;;;;;9.30;94974.00;;;;5075898;28;20278;-56
2022/12/23 01:11:01;;;;;;;0.60;0.60;;;;;9.50;94973.00;;;;5075805;28;20192;-56
2022/12/23 01:13:29;;;;;;;0.80;0.80;;;;;9.40;94964.00;;;;5075500;28;20218;-56
2022/12/23 01:16:00;;;;;;;0.60;0.60;;;;;9.40;94967.00;;;;5075639;28;20195;-56
2022/12/23 01:18:34;;;;;;;0.97;0.97;;;;;9.50;94983.00;;;;5075967;28;20184;-56
2022/12/23 01:21:02;;;;;;;0.60;0.60;;;;;9.50;94974.00;;;;5075631;28;20654;-56
2022/12/23 01:23:31;;;;;;;0.50;0.50;;;10.20;99.90;9.40;94986.00;;;;5075484;28;20305;-57
2022/12/23 01:26:00;;;;;;;0.50;0.50;;;10.10;99.90;9.50;94977.00;;;;5075484;28;20195;-56
2022/12/23 01:28:29;;;;;;;0.53;0.53;;;10.20;99.90;9.60;94990.00;;;;5076097;28;20192;-56
2022/12/23 01:30:57;;;;;;;0.53;0.53;;;10.20;99.90;9.60;94977.00;;;;5075671;28;20188;-56
2022/12/23 01:33:24;;;;;;;0.50;0.50;;;10.20;99.90;9.50;94996.00;;;;5075794;28;20214;-56
2022/12/23 01:35:51;;;;;;;0.50;0.50;;;10.20;99.90;9.50;95002.00;;;;5075350;28;20192;-56
2022/12/23 01:38:25;;;;;;;0.60;0.60;;;10.20;99.90;9.40;94998.00;;;;5075322;28;20192;-57
2022/12/23 01:40:53;;;;;;;0.50;0.50;;;;;9.50;95008.00;;;;5075522;28;20190;-56
2022/12/23 01:43:20;;;;;;;0.50;0.50;;;10.10;99.90;9.40;95002.00;;;;5075033;28;20207;-55
2022/12/23 01:45:47;;;;;;;0.50;0.50;;;10.20;99.90;9.50;95011.00;;;;5075595;28;20302;-55
2022/12/23 01:48:20;;;;;;;0.40;0.40;;;10.20;99.90;9.50;95006.00;;;;5075086;28;20192;-56
2022/12/23 01:50:59;;;;;;;0.50;0.50;;;10.20;99.90;9.50;95010.00;;;;5075343;28;20184;-58
2022/12/23 01:53:30;;;;;;;0.50;0.50;;;10.20;99.90;9.60;95022.00;;;;5074971;28;20573;-56
2022/12/23 01:56:06;;;;;;;0.50;0.50;;;10.20;99.90;9.60;95016.00;;;;5075501;28;20233;-56
2022/12/23 01:58:38;;;;;;;0.50;0.50;;;10.30;99.90;9.60;95025.00;;;;5075360;28;20186;-59
2022/12/23 02:03:55;;;;;;;0.50;0.50;;;;;9.60;95027.00;;;;5074626;28;20741;-57
2022/12/23 02:09:16;;;;;;;0.50;0.50;;;10.30;99.90;9.50;95039.00;;;;5074914;28;20523;-56
2022/12/23 02:12:08;;;;;;;0.50;0.50;;;10.30;99.90;9.60;95040.00;;;;5074458;28;20179;-56
2022/12/23 02:17:48;;;;;;;0.60;0.60;;;;;9.70;95059.00;;;;5074646;28;20199;-56
2022/12/23 02:21:09;;;;;;;0.50;0.50;;;10.40;99.90;9.70;95049.00;;;;5074955;28;20184;-56
2022/12/23 02:24:36;;;;;;;0.50;0.50;;;10.40;99.90;9.70;95047.00;;;;5066066;28;20730;-56
2022/12/23 02:27:13;;;;;;;0.50;0.50;;;10.40;99.90;9.70;95055.00;;;;5045516;28;20203;-57
2022/12/23 02:30:25;;;;;;;0.43;0.43;;;10.30;99.90;9.80;95049.00;;;;5074495;28;20700;-56
2022/12/23 02:33:41;;;;;;;0.40;0.40;;;10.40;99.90;9.80;95062.00;;;;5074642;28;20294;-56
2022/12/23 02:36:32;;;;;;;0.50;0.50;;;10.40;99.90;9.70;95057.00;;;;5070655;28;20211;-56
2022/12/23 02:39:06;;;;;;;0.60;0.60;;;;;9.80;95067.00;;;;5074119;28;20189;-56
2022/12/23 02:41:43;;;;;;;0.70;0.70;;;10.50;99.90;9.90;95065.00;;;;5074225;28;20176;-57
2022/12/23 02:44:21;;;;;;;0.53;0.53;;;10.50;99.90;9.80;95071.00;;;;5074399;28;20203;-56
2022/12/23 02:46:54;;;;;;;0.50;0.50;;;10.50;99.90;9.90;95078.00;;;;5073969;28;20236;-56
2022/12/23 02:49:30;;;;;;;0.50;0.50;;;10.50;99.90;9.90;95080.00;;;;5073908;28;20241;-56
2022/12/23 02:52:02;;;;;;;0.50;0.50;;;10.60;99.90;10.00;95095.00;;;;5073810;28;20211;-57
2022/12/23 02:54:36;;;;;;;0.97;0.97;;;10.60;99.90;9.90;95090.00;;;;5073787;28;20180;-58
2022/12/23 02:57:07;;;;;;;0.60;0.60;;;10.60;99.90;9.80;95097.00;;;;5074021;28;20180;-56
2022/12/23 02:59:40;;;;;;;0.60;0.60;;;10.50;99.90;9.80;95098.00;;;;5073941;28;20193;-56
2022/12/23 03:02:07;;;;;;;0.50;0.50;;;10.50;99.90;9.80;95097.00;;;;5073550;28;20257;-56
2022/12/23 03:04:39;;;;;;;0.50;0.50;;;;;9.80;95106.00;;;;5073484;28;20219;-56
2022/12/23 03:07:08;;;;;;;0.60;0.60;;;10.50;99.90;9.70;95105.00;;;;5074108;28;20203;-56
2022/12/23 03:09:50;;;;;;;0.50;0.50;;;10.50;99.90;9.70;95107.00;;;;5073478;28;20223;-56
2022/12/23 03:12:32;;;;;;;0.40;0.40;;;10.40;99.90;9.80;95100.00;;;;5073519;28;20558;-56
2022/12/23 03:15:23;;;;;;;0.50;0.50;;;10.50;99.90;9.90;95106.00;;;;5073780;28;20195;-56
2022/12/23 03:18:03;;;;;;;0.40;0.40;;;10.50;99.90;9.90;95110.00;;;;5073702;28;20520;-56
2022/12/23 03:20:39;;;;;;;0.50;0.50;;;;;9.90;95121.00;;;;5073677;28;20580;-56
2022/12/23 03:23:21;;;;;;;0.50;0.50;;;10.50;99.90;9.90;95112.00;;;;5073609;28;20272;-56
2022/12/23 03:26:03;;;;;;;0.93;0.93;;;10.50;99.90;9.90;95114.00;;;;5073309;28;20224;-56
2022/12/23 03:28:39;;;;;;;0.53;0.53;;;10.50;99.90;10.00;95118.00;;;;5073344;28;20263;-56
2022/12/23 03:31:15;;;;;;;0.50;0.50;;;10.60;99.90;9.90;95119.00;;;;5073273;28;20180;-56
2022/12/23 03:33:48;;;;;;;0.50;0.50;;;10.60;99.90;9.90;95131.00;;;;5073483;28;20215;-56
2022/12/23 03:36:24;;;;;;;0.60;0.60;;;10.60;99.90;9.90;95132.00;;;;5072415;28;20187;-57
2022/12/23 03:38:53;;;;;;;0.50;0.50;;;;;9.90;95130.00;;;;5073156;28;20638;-57
2022/12/23 03:41:29;;;;;;;0.50;0.50;;;10.50;99.90;10.00;95144.00;;;;5073141;28;20662;-60
2022/12/23 03:44:02;;;;;;;0.60;0.60;;;;;10.00;95142.00;;;;5073412;28;20183;-57
2022/12/23 03:46:35;;;;;;;0.43;0.43;;;10.60;99.90;10.00;95138.00;;;;5073585;28;20210;-57
2022/12/23 03:49:07;;;;;;;0.60;0.60;;;10.70;99.90;10.00;95137.00;;;;5073105;28;20188;-56
2022/12/23 03:51:40;;;;;;;0.50;0.50;;;;;9.90;95142.00;;;;5073139;28;20198;-57
2022/12/23 03:54:14;;;;;;;0.40;0.40;;;10.60;99.90;9.90;95128.00;;;;5073061;28;20184;-57
2022/12/23 03:56:50;;;;;;;0.60;0.60;;;10.60;99.90;10.00;95136.00;;;;5073485;28;20179;-57
2022/12/23 03:59:23;;;;;;;0.50;0.50;;;10.70;99.90;10.00;95145.00;;;;5074065;28;20171;-57
2022/12/23 04:02:03;;;;;;;0.50;0.50;;;10.70;99.90;10.20;95153.00;;;;5072854;28;20666;-58
2022/12/23 04:04:48;;;;;;;0.50;0.50;;;10.90;99.90;10.20;95154.00;;;;5073932;28;20348;-56
2022/12/23 04:07:21;;;;;;;0.50;0.50;;;;;10.40;95150.00;;;;5072881;28;20229;-57
2022/12/23 04:09:50;;;;;;;0.60;0.60;;;10.90;99.90;10.40;95142.00;;;;5073464;28;20187;-57
2022/12/23 04:12:18;;;;;;;0.60;0.60;;;11.10;99.90;10.40;95147.00;;;;5073337;28;20230;-57
2022/12/23 04:14:48;;;;;;;0.50;0.50;;;11.00;99.90;10.50;95146.00;;;;5073291;28;20194;-57
2022/12/23 04:17:16;;;;;;;0.50;0.50;;;;;10.40;95149.00;;;;5073440;28;20626;-57
2022/12/23 04:19:45;;;;;;;0.50;0.50;;;;;10.50;95139.00;;;;5072778;28;20249;-57
2022/12/23 04:22:12;;;;;;;0.50;0.50;;;11.10;99.90;10.40;95132.00;;;;5072750;28;20207;-57
2022/12/23 04:24:41;;;;;;;0.50;0.50;;;11.10;99.90;10.60;95134.00;;;;5072909;28;20199;-56
2022/12/23 04:27:13;;;;;;;0.50;0.50;;;11.20;99.90;10.60;95125.00;;;;5072873;28;20207;-57
2022/12/23 04:29:40;;;;;;;0.50;0.50;;;11.20;99.90;10.60;95124.00;;;;5073353;28;20199;-57
2022/12/23 04:32:07;;;;;;;0.57;0.57;;;11.20;99.90;10.60;95121.00;;;;5072679;28;20215;-57
2022/12/23 04:34:34;;;;;;;0.50;0.50;;;;;10.70;95145.00;;;;5072982;28;20195;-57
2022/12/23 04:37:02;;;;;;;0.50;0.50;;;11.30;99.90;10.60;95139.00;;;;5072899;28;20257;-57
2022/12/23 04:39:29;;;;;;;0.50;0.50;;;11.30;99.90;10.60;95147.00;;;;5072508;28;20183;-57
2022/12/23 04:41:57;;;;;;;0.50;0.50;;;11.20;99.90;10.60;95152.00;;;;5072933;28;20211;-57
2022/12/23 04:44:24;;;;;;;0.60;0.60;;;11.20;99.90;10.50;95156.00;;;;5073456;28;20192;-57
2022/12/23 04:46:51;;;;;;;0.70;0.70;;;11.20;99.90;10.50;95158.00;;;;5072852;28;20215;-57
2022/12/23 04:49:18;;;;;;;0.50;0.50;;;11.20;99.90;10.60;95165.00;;;;5076238;28;20192;-57
2022/12/23 04:51:45;;;;;;;0.60;0.60;;;11.20;99.90;10.50;95161.00;;;;5076767;28;20585;-57
2022/12/23 04:54:12;;;;;;;0.60;0.60;;;11.20;99.90;10.50;95163.00;;;;5076102;28;20199;-57
2022/12/23 04:56:39;;;;;;;0.50;0.50;;;11.10;99.90;10.40;95149.00;;;;5076595;28;20195;-57
2022/12/23 04:59:07;;;;;;;0.40;0.40;;;11.10;99.90;10.30;95157.00;;;;5076385;28;20188;-57
2022/12/23 05:01:34;;;;;;;0.50;0.50;;;11.10;99.90;10.50;95156.00;;;;5075871;28;20654;-58
2022/12/23 05:04:01;;;;;;;0.50;0.50;;;11.20;99.90;10.50;95176.00;;;;5075887;28;20196;-57
2022/12/23 05:06:28;;;;;;;0.60;0.60;;;11.20;99.90;10.60;95177.00;;;;5075869;28;20215;-57
2022/12/23 05:08:55;;;;;;;0.50;0.50;;;11.20;99.90;10.60;95173.00;;;;5076093;28;20192;-57
2022/12/23 05:11:22;;;;;;;0.60;0.60;;;11.30;99.90;10.70;95186.00;;;;5076086;28;20191;-57
2022/12/23 05:13:50;;;;;;;0.43;0.43;;;;;10.50;95176.00;;;;5075807;28;20577;-57
2022/12/23 05:16:18;;;;;;;0.63;0.63;;;11.20;99.90;10.50;95178.00;;;;5075753;28;20184;-57
2022/12/23 05:18:45;;;;;;;0.50;0.50;;;11.20;99.90;10.30;95183.00;;;;5057776;28;20663;-57
2022/12/23 05:21:12;;;;;;;1.13;1.13;;;11.10;99.90;10.30;95203.00;;;;5075962;28;20599;-57
2022/12/23 05:23:39;;;;;;;11.60;1.20;;;11.00;99.90;10.40;95181.00;;;;5075571;28;20211;-57
2022/12/23 05:26:06;;;;;;;0.80;0.80;;;11.10;99.90;10.40;95171.00;;;;5075483;28;20207;-57
2022/12/23 05:28:34;;;;;;;0.83;0.83;;;;;10.60;95168.00;;;;5057592;28;20594;-57
2022/12/23 05:31:03;;;;;;;0.50;0.50;;;11.20;99.90;10.50;95178.00;;;;5075792;28;20658;-57
2022/12/23 05:33:33;;;;;;;0.60;0.60;;;11.20;99.90;10.50;95187.00;;;;5075422;28;20204;-57
2022/12/23 05:36:01;;;;;;;0.50;0.50;;;11.10;99.90;10.50;95190.00;;;;5075962;28;20188;-57
2022/12/23 05:38:28;;;;;;;0.50;0.50;;;11.10;99.90;10.40;95188.00;;;;5075795;28;20202;-57
2022/12/23 05:40:55;;;;;;;0.40;0.40;;;11.10;99.90;10.50;95194.00;;;;5075303;28;20187;-57
2022/12/23 05:43:23;;;;;;;2.13;1.13;;;11.20;99.90;10.60;95186.00;;;;5075438;28;20208;-61
2022/12/23 05:45:51;;;;;;;0.53;0.53;;;11.30;99.90;10.70;95192.00;;;;5075422;28;20678;-57
2022/12/23 05:48:18;;;;;;;0.50;0.50;;;11.30;99.90;10.70;95202.00;;;;5075217;28;20194;-57
2022/12/23 05:50:49;;;;;;;0.50;0.50;;;;;10.70;95207.00;;;;5075364;28;20519;-58
2022/12/23 05:53:17;;;;;;;0.60;0.60;;;;;10.70;95206.00;;;;5075644;28;20212;-58
2022/12/23 05:55:45;;;;;;;0.50;0.50;;;;;10.70;95208.00;;;;5074953;28;20196;-57
2022/12/23 05:58:12;;;;;;;0.50;0.50;;;11.40;99.90;10.80;95209.00;;;;5056508;28;20199;-57
2022/12/23 06:00:39;;;;;;;0.60;0.60;;;11.50;99.90;10.80;95196.00;;;;5074504;28;20199;-57
2022/12/23 06:03:06;;;;;;;0.50;0.50;;;11.40;99.90;10.70;95204.00;;;;5075361;28;20211;-57
2022/12/23 06:05:35;;;;;;;0.50;0.50;;;11.40;99.90;10.80;95201.00;;;;5074729;28;20273;-57
2022/12/23 06:08:04;;;;;;;0.50;0.50;;;11.40;99.90;10.70;95202.00;;;;5074660;28;20195;-57
2022/12/23 06:10:31;;;;;;;0.60;0.60;;;11.40;99.90;10.60;95202.00;;;;5075323;28;20696;-57
2022/12/23 06:12:58;;;;;;;0.60;0.60;;;11.30;99.90;10.60;95209.00;;;;5074945;28;20219;-58
2022/12/23 06:15:25;;;;;;;0.53;0.53;;;11.30;99.90;10.50;95207.00;;;;5074603;28;20657;-60
2022/12/23 06:17:52;;;;;;;0.50;0.50;;;11.20;99.90;10.50;95197.00;;;;5074592;28;20237;-58
2022/12/23 06:20:19;;;;;;;0.50;0.50;;;11.30;99.90;10.60;95209.00;;;;5075346;28;20235;-57
2022/12/23 06:22:46;;;;;;;0.50;0.50;;;11.20;99.90;10.60;95207.00;;;;5074450;28;20211;-59
2022/12/23 06:25:14;;;;;;;0.60;0.60;;;11.30;99.90;10.60;95201.00;;;;5074626;28;20191;-57
2022/12/23 06:27:41;;;;;;;0.80;0.80;;;11.20;99.90;10.60;95210.00;;;;5074446;28;20248;-57
2022/12/23 06:30:10;;;;;;;0.60;0.60;;;11.30;99.90;10.50;95213.00;;;;5074375;28;20249;-57
2022/12/23 06:32:37;;;;;;;0.47;0.47;;;11.20;99.90;10.60;95217.00;;;;5074552;28;20208;-57
2022/12/23 06:35:05;;;;;;;0.50;0.50;;;11.30;99.90;10.60;95201.00;;;;5074487;28;20195;-57
2022/12/23 06:37:32;;;;;;;0.60;0.60;;;11.30;99.90;10.60;95197.00;;;;5074542;28;20203;-60
2022/12/23 06:39:59;;;;;;;0.50;0.50;;;11.20;99.90;10.60;95211.00;;;;5074106;28;20241;-57
2022/12/23 06:42:28;;;;;;;0.60;0.60;;;11.30;99.90;10.40;95211.00;;;;5074316;28;20268;-57
2022/12/23 06:44:55;;;;;;;0.50;0.50;;;11.20;99.90;10.40;95211.00;;;;5074020;28;20195;-57
2022/12/23 06:47:22;;;;;;;0.60;0.60;;;;;10.30;95210.00;;;;5073961;28;20211;-57
2022/12/23 06:49:49;;;;;;;0.50;0.50;;;;;10.30;95209.00;;;;5074188;28;20195;-57
2022/12/23 06:52:17;;;;;;;0.60;0.60;;;10.90;99.90;10.20;95209.00;;;;5055940;28;20226;-57
2022/12/23 06:54:44;;;;;;;0.50;0.50;;;11.00;99.90;10.20;95216.00;;;;5074092;28;20536;-57
2022/12/23 06:57:11;;;;;;;0.50;0.50;;;;;10.30;95222.00;;;;5073873;28;20312;-57
2022/12/23 06:59:39;;;;;;;0.50;0.50;;;11.00;99.90;10.40;95237.00;;;;5073762;28;20199;-58
2022/12/23 07:02:07;;;;;;;0.47;0.47;;;;;10.30;95220.00;;;;5073864;28;20211;-57
2022/12/23 07:04:34;;;;;;;0.60;0.60;;;;;10.30;95227.00;;;;5073928;28;20623;-57
2022/12/23 07:07:01;;;;;;;0.50;0.50;;;;;10.40;95240.00;;;;5073801;28;20215;-57
2022/12/23 07:09:28;;;;;;;0.57;0.57;;;11.10;99.90;10.40;95242.00;;;;5073594;28;20195;-57
2022/12/23 07:11:56;;;;;;;0.60;0.60;;;;;10.40;95248.00;;;;5073528;28;20207;-57
2022/12/23 07:14:23;;;;;;;0.50;0.50;;;11.10;99.90;10.30;95240.00;;;;5073890;28;20183;-57
2022/12/23 07:16:51;;;;;;;0.60;0.60;;;11.00;99.90;10.30;95243.00;;;;5073629;28;20196;-57
2022/12/23 07:19:18;;;;;;;0.60;0.60;;;11.00;99.90;10.20;95234.00;;;;5073504;28;20199;-57
2022/12/23 07:21:45;;;;;;;0.40;0.40;;;11.00;99.90;10.20;95247.00;;;;5073635;28;20192;-57
2022/12/23 07:24:12;;;;;;;0.50;0.50;;;10.90;99.90;10.10;95239.00;;;;5073418;28;20191;-57
2022/12/23 07:26:39;;;;;;;0.50;0.50;;;10.90;99.90;10.10;95242.00;;;;5073431;28;20230;-58
2022/12/23 07:29:06;;;;;;;0.60;0.60;;;10.90;99.90;10.10;95247.00;;;;5073908;28;20188;-57
2022/12/23 07:31:33;;;;;;;0.70;0.70;;;10.90;99.90;10.10;95250.00;;;;5055425;28;20262;-57
2022/12/23 07:34:02;;;;;;;0.50;0.50;;;10.90;99.90;10.10;95248.00;;;;5073973;28;20558;-58
2022/12/23 07:36:29;;;;;;;0.67;0.67;;;10.90;99.90;10.10;95236.00;;;;5073438;28;20195;-57
2022/12/23 07:38:56;;;;;;;0.50;0.50;;;10.90;99.90;10.00;95252.00;;;;5073913;28;20191;-57
2022/12/23 07:41:23;;;;;;;0.50;0.50;;;10.90;99.90;10.00;95260.00;;;;5073076;28;20732;-57
2022/12/23 07:43:50;;;;;;;0.60;0.60;;;10.90;99.90;10.00;95262.00;;;;5073081;28;20215;-57
2022/12/23 07:46:17;;;;;;;0.47;0.47;;;10.80;99.90;10.00;95260.00;;;;5073494;28;20219;-57
2022/12/23 07:48:44;;;;;;;0.90;0.90;;;;;10.10;95263.00;;;;5073536;28;20214;-57
2022/12/23 07:51:13;;;;;;;0.60;0.60;;;10.80;99.90;10.10;95263.00;;;;5073212;28;20206;-57
2022/12/23 07:53:40;;;;;;;0.50;0.50;;;10.90;99.90;10.10;95256.00;;;;5072927;28;20317;-57
2022/12/23 07:56:08;;;;;;;0.93;0.93;;;10.90;99.90;10.10;95251.00;;;;5072900;28;20194;-57
2022/12/23 07:58:35;;;;;;;2.93;1.73;;;10.90;99.90;10.10;95257.00;;;;5054926;28;20205;-56
2022/12/23 08:01:04;;;;;;;0.80;0.80;;;10.90;99.90;10.00;95264.00;;;;5072935;28;20555;-57
2022/12/23 08:03:31;;;;;;;2.33;1.50;;;10.80;99.90;10.00;95263.00;;;;5072903;28;20218;-57
2022/12/23 08:06:04;;;;;;;1.83;1.73;;;10.80;99.90;10.00;95274.00;;;;5072768;28;20215;-57
2022/12/23 08:08:34;;;;;;;0.70;0.70;;;10.80;99.90;10.00;95273.00;;;;5073399;28;20180;-57
2022/12/23 08:11:04;;;;;;;0.63;0.63;;;10.80;99.90;10.10;95271.00;;;;5073084;28;20612;-57
2022/12/23 08:13:33;;;;;;;7.40;1.20;;;10.90;99.90;10.10;95271.00;;;;5073422;28;20682;-57
2022/12/23 08:16:02;;;;;;;0.50;0.50;;;10.90;99.90;10.10;95264.00;;;;5073065;28;20547;-57
2022/12/23 08:18:34;;;;;;;0.60;0.60;;;10.90;99.90;10.20;95273.00;;;;5054802;28;20191;-57
2022/12/23 08:21:03;;;;;;;0.60;0.60;;;;;10.20;95276.00;;;;5073050;28;20191;-57
2022/12/23 08:23:33;;;;;;;0.60;0.60;;;;;10.20;95262.00;;;;5075956;28;20218;-56
2022/12/23 08:26:02;;;;;;;0.50;0.50;;;;;10.20;95263.00;;;;5076513;28;20219;-57
2022/12/23 08:28:30;;;;;;;0.77;0.77;;;;;10.20;95258.00;;;;5077139;28;20233;-57
2022/12/23 08:31:05;;;;;;;2.93;1.20;;;11.10;99.90;10.30;95262.00;;;;5076548;28;20670;-57
2022/12/23 08:33:33;;;;;;;0.60;0.60;;;;;10.30;95249.00;;;;5076576;28;20253;-57
2022/12/23 08:36:01;;;;;;;0.50;0.50;;;;;10.30;95258.00;;;;5058529;28;20633;-57
2022/12/23 08:38:28;;;;;;;0.40;0.40;;;;;10.30;95259.00;;;;5076393;28;20666;-56
2022/12/23 08:40:57;;;;;;;0.97;0.97;;;11.10;99.90;10.40;95243.00;;;;5076298;28;20268;-57
2022/12/23 08:43:24;;;;;;;0.50;0.50;;;11.10;99.90;10.40;95248.00;;;;5076281;28;20211;-56
2022/12/23 08:45:51;;;;;;;0.83;0.83;;;11.20;99.90;10.40;95253.00;;;;5076733;28;20206;-56
2022/12/23 08:48:18;;;;;;;0.53;0.53;;;11.10;99.90;10.40;95250.00;;;;5076241;28;20655;-57
2022/12/23 08:50:46;;;;;;;0.40;0.40;;;11.20;99.90;10.40;95252.00;;;;5076604;28;20194;-57
2022/12/23 08:53:14;;;;;;;0.50;0.50;;;11.20;99.90;10.60;95255.00;;;;5076135;28;20211;-57
2022/12/23 08:55:46;;;;;;;1.67;1.50;;;11.30;99.90;10.50;95248.00;;;;5076183;28;20190;-57
2022/12/23 08:58:15;;;;;;;0.60;0.60;;;11.30;99.90;10.60;95252.00;;;;5076088;28;20696;-57
2022/12/23 09:00:42;;;;;;;0.60;0.60;;;11.30;99.90;10.60;95258.00;;;;5076072;28;20187;-58
2022/12/23 09:03:09;;;;;;;0.50;0.50;;;11.40;99.90;10.60;95260.00;;;;5075977;28;20208;-57
2022/12/23 09:05:40;;;;;;;0.50;0.50;;;11.40;99.90;10.60;95261.00;;;;5075969;28;20257;-57
2022/12/23 09:08:08;;;;;;;0.50;0.50;;;11.30;99.90;10.60;95246.00;;;;5076103;28;20716;-57
2022/12/23 09:10:41;;;;;;;0.57;0.57;;;11.40;99.90;10.60;95276.00;;;;5075947;28;20191;-57
2022/12/23 09:13:08;;;;;;;0.63;0.63;;;11.30;99.90;10.60;95268.00;;;;5075653;28;20272;-57
2022/12/23 09:15:42;;;;;;;0.50;0.50;;;11.40;99.90;10.60;95269.00;;;;5076067;28;20188;-57
2022/12/23 09:18:09;;;;;;;0.60;0.60;;;11.40;99.90;10.50;95272.00;;;;5076302;28;20187;-57
2022/12/23 09:20:37;;;;;;;0.60;0.60;;;11.30;99.90;10.50;95269.00;;;;5075735;28;20712;-57
2022/12/23 09:23:06;;;;;;;0.70;0.70;;;11.20;99.90;10.50;95276.00;;;;5075564;28;20215;-57
2022/12/23 09:25:33;;;;;;;0.50;0.50;;;11.20;99.90;10.60;95282.00;;;;5075884;28;20524;-57
2022/12/23 09:28:00;;;;;;;0.50;0.50;;;11.30;99.90;10.60;95266.00;;;;5075469;28;20215;-57
2022/12/23 09:30:27;;;;;;;0.70;0.70;;;11.30;99.90;10.50;95259.00;;;;5075505;28;20289;-57
2022/12/23 09:32:56;;;;;;;0.53;0.53;;;11.30;99.90;10.40;95261.00;;;;5074967;28;20261;-57
2022/12/23 09:35:23;;;;;;;0.77;0.77;;;11.20;99.90;10.40;95254.00;;;;5074860;28;20203;-57
2022/12/23 09:37:50;;;;;;;0.50;0.50;;;11.20;99.90;10.40;95246.00;;;;5075326;28;20215;-57
2022/12/23 09:40:21;;;;;;;0.77;0.77;;;11.20;99.90;10.40;95243.00;;;;5075326;28;20213;-57
2022/12/23 09:43:09;;;;;;;0.60;0.60;;;11.10;99.90;10.40;95245.00;;;;5075695;28;20215;-58
2022/12/23 09:45:57;;;;;;;0.60;0.60;;;11.10;99.90;10.40;95236.00;;;;5075266;28;20176;-57
2022/12/23 09:48:34;;;;;;;0.50;0.50;;;11.20;99.90;10.30;95233.00;;;;5075295;28;20211;-57
2022/12/23 09:51:03;;;;;;;0.70;0.70;;;11.10;99.90;10.40;95211.00;;;;5075496;28;20621;-56
2022/12/23 09:53:46;;;;;;;0.50;0.50;;;11.20;99.90;10.50;95225.00;;;;5075007;28;20211;-58
2022/12/23 09:56:22;;;;;;;0.50;0.50;;;11.20;99.90;10.50;95228.00;;;;5075154;28;20176;-57
2022/12/23 09:59:03;;;;;;;0.50;0.50;;;11.20;99.90;10.50;95218.00;;;;5075279;28;20198;-57
2022/12/23 10:01:38;;;;;;;0.53;0.53;;;11.30;99.90;10.80;95226.00;;;;5075247;28;20537;-61
2022/12/23 10:04:33;;;;;;;0.60;0.60;;;11.40;99.90;10.80;95219.00;;;;5074949;28;20233;-57
2022/12/23 10:07:33;;;;;;;0.67;0.67;;;11.50;99.90;10.80;95211.00;;;;5074866;28;20199;-57
2022/12/23 10:10:13;;;;;;;0.60;0.60;;;11.50;99.90;10.90;95225.00;;;;5075064;28;20176;-57
2022/12/23 10:12:46;;;;;;;0.60;0.60;;;11.50;99.90;11.00;95215.00;;;;5074748;28;20229;-57
2022/12/23 10:15:28;;;;;;;0.50;0.50;;;11.60;99.90;10.90;95213.00;;;;5075223;28;20180;-57
2022/12/23 10:18:02;;;;;;;0.70;0.70;;;11.50;99.90;10.80;95217.00;;;;5074644;28;20237;-58
2022/12/23 10:20:44;;;;;;;0.60;0.60;;;11.50;99.90;10.80;95201.00;;;;5074588;28;20183;-57
2022/12/23 10:23:17;;;;;;;0.80;0.80;;;11.50;99.90;10.80;95204.00;;;;5074992;28;20212;-56
2022/12/23 10:25:51;;;;;;;0.60;0.60;;;11.50;99.90;10.80;95210.00;;;;5074999;28;20194;-58
2022/12/23 10:28:18;;;;;;;0.60;0.60;;;11.50;99.90;10.80;95207.00;;;;5074590;28;20195;-56
2022/12/23 10:31:00;;;;;;;0.50;0.50;;;11.50;99.90;10.70;95215.00;;;;5074339;28;20198;-54
2022/12/23 10:33:43;;;;;;;0.77;0.77;;;11.40;99.90;10.90;95205.00;;;;5074316;28;20211;-54
2022/12/23 10:36:19;;;;;;;0.70;0.70;;;11.40;99.90;10.60;95201.00;;;;5074249;28;20187;-55
2022/12/23 10:39:01;;;;;;;0.70;0.70;;;11.40;99.90;10.60;95194.00;;;;5074174;28;20172;-55
2022/12/23 10:41:46;;;;;;;0.73;0.73;;;11.40;99.90;10.60;95188.00;;;;5074402;28;20180;-57
2022/12/23 10:44:49;;;;;;;0.63;0.63;;;11.30;99.90;10.70;95188.00;;;;5074322;28;20195;-56
2022/12/23 10:47:31;;;;;;;0.50;0.50;;;11.40;99.90;10.90;95189.00;;;;5073932;28;20203;-56
2022/12/23 10:50:19;;;;;;;0.83;0.83;;;11.50;99.90;11.00;95187.00;;;;5074179;28;20535;-56
2022/12/23 10:52:51;;;;;;;0.60;0.60;;;11.70;99.90;11.10;95187.00;;;;5073885;28;20214;-56
2022/12/23 10:55:26;;;;;;;0.60;0.60;;;11.70;99.90;11.10;95188.00;;;;5074032;28;20258;-57
2022/12/23 10:57:57;;;;;;;0.80;0.80;;;11.80;99.90;11.10;95190.00;;;;5056071;28;20266;-56
2022/12/23 11:00:25;;;;;;;0.60;0.60;;;11.70;99.90;11.10;95190.00;;;;5055949;28;20199;-59
2022/12/23 11:03:12;;;;;;;0.73;0.73;;;11.70;99.90;11.00;95180.00;;;;5073678;28;20223;-56
2022/12/23 11:05:40;;;;;;;3.13;1.57;;;11.70;99.90;11.10;95172.00;;;;5073910;28;20175;-58
2022/12/23 11:08:10;;;;;;;0.50;0.50;;;11.70;99.90;11.00;95172.00;;;;5074932;28;20732;-62
2022/12/23 11:10:39;;;;;;;0.60;0.60;;;11.60;99.90;11.10;95157.00;;;;5074896;28;20546;-59
2022/12/23 11:13:07;;;;;;;0.60;0.60;;;;;11.10;95159.00;;;;5074489;28;20318;-58
2022/12/23 11:15:37;;;;;;;0.70;0.70;;;11.70;99.90;11.10;95162.00;;;;5073996;28;20612;-57
2022/12/23 11:18:16;;;;;;;0.50;0.50;;;11.80;99.90;11.10;95163.00;;;;5073818;28;20203;-57
2022/12/23 11:20:56;;;;;;;0.50;0.50;;;11.80;99.90;11.40;95165.00;;;;5073577;28;20672;-57
2022/12/23 11:23:29;;;;;;;0.40;0.40;;;11.90;99.90;11.10;95149.00;;;;5073621;28;20304;-57
2022/12/23 11:26:02;;;;;;;1.10;1.10;;;11.80;99.90;11.20;95144.00;;;;5073882;28;20191;-57
2022/12/23 11:28:32;;;;;;;0.90;0.90;;;11.90;99.90;11.00;95140.00;;;;5073593;28;20219;-57
2022/12/23 11:31:08;;;;;;;0.43;0.43;;;11.70;99.90;11.10;95145.00;;;;5073263;28;20188;-57
2022/12/23 11:33:40;;;;;;;0.60;0.60;;;11.80;99.90;11.20;95135.00;;;;5073180;28;20214;-57
2022/12/23 11:36:17;;;;;;;0.57;0.57;;;11.80;99.90;11.30;95131.00;;;;5073528;28;20610;-57
2022/12/23 11:38:51;;;;;;;0.57;0.57;;;11.90;99.90;11.50;95120.00;;;;5073254;28;20180;-57
2022/12/23 11:41:27;;;;;;;0.50;0.50;;;12.00;99.90;11.50;95120.00;;;;5073305;28;20182;-58
2022/12/23 11:44:00;;;;;;;3.07;1.43;;;12.10;99.90;11.50;95115.00;;;;5073145;28;20286;-57
2022/12/23 11:46:30;;;;;;;0.50;0.50;;;12.10;99.90;11.50;95116.00;;;;5073158;28;20179;-57
2022/12/23 11:49:16;;;;;;;0.40;0.40;;;12.20;99.90;11.50;95110.00;;;;5073303;28;20208;-57
2022/12/23 11:51:45;;;;;;;0.60;0.60;;;12.20;99.90;11.60;95116.00;;;;5073105;28;20171;-57
2022/12/23 11:54:21;;;;;;;0.50;0.50;;;12.30;99.90;11.60;95103.00;;;;5073082;28;20192;-56
2022/12/23 11:56:52;;;;;;;0.50;0.50;;;12.20;99.90;11.60;95096.00;;;;5072158;28;20187;-58